Time;durP1;ratioP1;P1;durP2;ratioP2;P2;SDS_P1;SDS_P2;PMS_P1;PMS_P2;Temp;Humidity;BMP_temperature;BMP_pressure;BME280_temperature;BME280_humidity;BME280_pressure;Samples;Min_cycle;Max_cycle;Signal;HPM_P1;HPM_P2
2024/01/15 00:00:36;;;;;;;17.52;3.22;;;22.00;99.90;;;;;;5086455;28;20640;-77
2024/01/15 00:03:07;;;;;;;11.90;2.83;;;21.90;99.90;;;;;;5074829;28;20196;-77
2024/01/15 00:05:38;;;;;;;21.23;3.75;;;22.00;99.90;;;;;;5090984;28;20231;-77
2024/01/15 00:08:11;;;;;;;15.88;2.70;;;22.00;99.90;;;;;;5066994;28;20192;-78
2024/01/15 00:10:41;;;;;;;18.60;3.10;;;22.10;99.90;;;;;;5071528;28;20625;-78
2024/01/15 00:13:12;;;;;;;21.20;3.67;;;22.10;99.90;;;;;;5102450;28;20624;-78
2024/01/15 00:15:43;;;;;;;18.58;3.67;;;22.20;99.90;;;;;;5106810;28;20199;-78
2024/01/15 00:18:14;;;;;;;17.88;3.25;;;22.20;99.90;;;;;;5060907;28;20284;-78
2024/01/15 00:20:47;;;;;;;15.45;3.35;;;22.20;99.90;;;;;;5055557;28;20224;-78
2024/01/15 00:23:20;;;;;;;14.80;3.03;;;22.40;99.90;;;;;;5061708;28;20188;-79
2024/01/15 00:25:51;;;;;;;15.18;3.30;;;22.50;99.90;;;;;;5062021;28;20299;-78
2024/01/15 00:28:21;;;;;;;19.20;3.15;;;22.60;99.90;;;;;;5054445;28;20193;-78
2024/01/15 00:30:52;;;;;;;15.07;3.17;;;22.60;99.90;;;;;;5072469;28;20210;-78
2024/01/15 00:33:23;;;;;;;12.88;2.47;;;22.70;99.90;;;;;;5072738;28;20296;-78
2024/01/15 00:35:54;;;;;;;16.75;3.40;;;22.80;99.90;;;;;;5070610;28;20291;-78
2024/01/15 00:38:26;;;;;;;17.33;3.08;;;22.80;99.90;;;;;;5052010;28;20208;-78
2024/01/15 00:41:00;;;;;;;19.02;3.42;;;22.80;99.90;;;;;;5054880;28;20201;-78
2024/01/15 00:43:33;;;;;;;18.65;3.08;;;22.90;99.90;;;;;;5072370;28;20204;-78
2024/01/15 00:46:06;;;;;;;15.90;3.30;;;23.00;99.90;;;;;;5072316;28;20261;-78
2024/01/15 00:48:37;;;;;;;18.38;3.28;;;23.00;99.90;;;;;;5072416;28;20207;-78
2024/01/15 00:51:08;;;;;;;14.00;3.10;;;23.00;99.90;;;;;;5052420;28;20280;-76
2024/01/15 00:53:40;;;;;;;11.77;2.88;;;22.90;99.90;;;;;;5052746;28;20651;-78
2024/01/15 00:56:11;;;;;;;18.15;3.10;;;22.90;99.90;;;;;;5076514;28;20209;-78
2024/01/15 00:58:42;;;;;;;15.25;2.83;;;22.80;99.90;;;;;;5052287;28;20606;-78
2024/01/15 01:01:12;;;;;;;15.15;2.80;;;22.80;99.90;;;;;;5055779;28;20200;-79
2024/01/15 01:03:43;;;;;;;14.45;2.75;;;22.80;99.90;;;;;;5068519;28;20204;-79
2024/01/15 01:06:14;;;;;;;13.90;2.80;;;22.70;99.90;;;;;;5065602;28;20232;-79
2024/01/15 01:08:46;;;;;;;13.40;2.60;;;22.70;99.90;;;;;;5072862;28;20200;-80
2024/01/15 01:11:18;;;;;;;15.82;2.78;;;22.80;99.90;;;;;;5058968;28;20743;-78
2024/01/15 01:13:48;;;;;;;16.77;2.75;;;22.80;99.90;;;;;;5053797;28;20201;-79
2024/01/15 01:16:19;;;;;;;10.43;2.22;;;22.70;99.90;;;;;;5056440;28;20223;-78
2024/01/15 01:18:50;;;;;;;12.57;2.83;;;22.70;99.90;;;;;;5057285;28;20192;-79
2024/01/15 01:21:21;;;;;;;14.82;2.83;;;22.80;99.90;;;;;;5074927;28;20200;-79
2024/01/15 01:23:53;;;;;;;15.68;3.20;;;23.00;99.90;;;;;;5060741;28;20543;-80
2024/01/15 01:26:24;;;;;;;15.18;2.80;;;23.00;99.90;;;;;;5055810;28;20209;-79
2024/01/15 01:28:55;;;;;;;11.52;2.63;;;23.00;99.90;;;;;;5067014;28;20628;-79
2024/01/15 01:31:26;;;;;;;18.42;2.65;;;23.10;99.90;;;;;;5052044;28;20200;-78
2024/01/15 01:33:57;;;;;;;11.80;2.53;;;23.10;99.90;;;;;;5052533;28;20210;-78
2024/01/15 01:36:28;;;;;;;16.85;2.90;;;23.00;99.90;;;;;;5057848;28;20567;-79
2024/01/15 01:39:00;;;;;;;17.17;3.38;;;23.00;99.90;;;;;;5054771;28;20211;-79
2024/01/15 01:41:31;;;;;;;16.50;3.05;;;23.10;99.90;;;;;;5060343;28;20196;-78
2024/01/15 01:44:02;;;;;;;11.43;2.50;;;23.10;99.90;;;;;;5073969;28;20530;-80
2024/01/15 01:46:33;;;;;;;9.82;2.40;;;23.00;99.90;;;;;;5074270;28;20564;-80
2024/01/15 01:49:06;;;;;;;11.55;2.47;;;22.90;99.90;;;;;;5070808;28;20279;-79
2024/01/15 01:51:39;;;;;;;12.25;2.30;;;22.90;99.90;;;;;;5072423;28;20196;-79
2024/01/15 01:54:13;;;;;;;10.95;2.55;;;22.90;99.90;;;;;;5071801;28;20202;-79
2024/01/15 01:56:44;;;;;;;11.02;2.45;;;22.90;99.90;;;;;;5076659;28;20275;-78
2024/01/15 01:59:16;;;;;;;9.38;2.08;;;22.90;99.90;;;;;;5083288;28;20673;-79
2024/01/15 02:01:47;;;;;;;16.95;2.85;;;22.90;99.90;;;;;;5077799;28;20685;-79
2024/01/15 02:04:18;;;;;;;11.50;2.20;;;22.90;99.90;;;;;;5068478;28;20201;-79
2024/01/15 02:06:49;;;;;;;13.90;2.95;;;23.00;99.90;;;;;;5050261;28;20232;-79
2024/01/15 02:09:21;;;;;;;10.60;2.22;;;23.10;99.90;;;;;;5050827;28;20207;-79
2024/01/15 02:11:52;;;;;;;10.57;2.92;;;23.10;99.90;;;;;;5050661;28;20217;-79
2024/01/15 02:14:23;;;;;;;13.85;2.65;;;23.10;99.90;;;;;;5050575;28;20204;-79
2024/01/15 02:16:54;;;;;;;6.60;1.92;;;23.10;99.90;;;;;;5050918;28;20193;-79
2024/01/15 02:19:24;;;;;;;9.70;2.00;;;23.20;99.90;;;;;;5050248;28;20197;-79
2024/01/15 02:21:55;;;;;;;10.18;2.53;;;23.20;99.90;;;;;;5079975;28;20250;-79
2024/01/15 02:24:29;;;;;;;9.45;2.30;;;23.30;99.90;;;;;;5066774;28;20191;-80
2024/01/15 02:26:59;;;;;;;9.27;2.40;;;23.30;99.90;;;;;;5053756;28;20994;-79
2024/01/15 02:29:30;;;;;;;12.95;2.50;;;23.40;99.90;;;;;;5087066;28;20199;-80
2024/01/15 02:32:01;;;;;;;15.55;2.40;;;23.50;99.90;;;;;;5090734;28;20206;-79
2024/01/15 02:34:35;;;;;;;10.27;2.10;;;23.50;99.90;;;;;;5090427;28;20561;-79
2024/01/15 02:37:06;;;;;;;11.43;2.38;;;23.50;99.90;;;;;;5076786;28;20202;-79
2024/01/15 02:39:38;;;;;;;13.35;2.78;;;23.60;99.90;;;;;;5081037;28;20203;-79
2024/01/15 02:42:09;;;;;;;12.98;2.15;;;23.70;99.90;;;;;;5066654;28;20677;-80
2024/01/15 02:44:40;;;;;;;8.88;2.22;;;23.70;99.90;;;;;;5066081;28;20195;-80
2024/01/15 02:47:11;;;;;;;11.40;2.25;;;23.80;99.90;;;;;;5055578;28;20222;-80
2024/01/15 02:49:41;;;;;;;9.90;1.85;;;23.90;99.90;;;;;;5087538;28;20202;-80
2024/01/15 02:52:12;;;;;;;10.15;2.10;;;24.00;99.90;;;;;;5082828;28;20204;-79
2024/01/15 02:54:45;;;;;;;13.80;2.65;;;24.10;99.90;;;;;;5090156;28;20201;-79
2024/01/15 02:57:16;;;;;;;9.63;2.40;;;24.20;99.90;;;;;;5082812;28;20207;-79
2024/01/15 02:59:46;;;;;;;12.88;2.75;;;24.30;99.90;;;;;;5059111;28;20209;-80
2024/01/15 03:02:18;;;;;;;15.43;3.33;;;24.40;99.90;;;;;;5069730;28;20205;-80
2024/01/15 03:04:48;;;;;;;11.00;2.60;;;24.40;99.90;;;;;;5071161;28;20187;-80
2024/01/15 03:07:19;;;;;;;12.45;2.40;;;24.30;99.90;;;;;;5087709;28;20227;-79
2024/01/15 03:09:52;;;;;;;10.30;2.63;;;24.40;99.90;;;;;;5063376;28;20198;-79
2024/01/15 03:12:23;;;;;;;11.73;2.42;;;24.30;99.90;;;;;;5070257;28;20192;-80
2024/01/15 03:14:53;;;;;;;13.95;2.65;;;24.40;99.90;;;;;;5073014;28;20550;-79
2024/01/15 03:17:24;;;;;;;12.15;2.50;;;24.40;99.90;;;;;;5090159;28;20206;-79
2024/01/15 03:19:55;;;;;;;13.02;2.00;;;24.40;99.90;;;;;;5090220;28;20277;-80
2024/01/15 03:22:25;;;;;;;16.25;3.00;;;24.60;99.90;;;;;;5086948;28;20222;-80
2024/01/15 03:25:01;;;;;;;15.32;2.45;;;24.50;99.90;;;;;;5090257;28;20200;-80
2024/01/15 03:27:35;;;;;;;9.35;2.17;;;24.50;99.90;;;;;;5074402;28;20297;-79
2024/01/15 03:30:08;;;;;;;10.63;2.33;;;24.50;99.90;;;;;;5067905;28;20209;-79
2024/01/15 03:32:39;;;;;;;10.18;2.17;;;24.50;99.90;;;;;;5086834;28;20603;-79
2024/01/15 03:35:11;;;;;;;11.05;2.17;;;24.50;99.90;;;;;;5089883;28;20288;-79
2024/01/15 03:37:42;;;;;;;9.35;2.13;;;24.50;99.90;;;;;;5088224;28;20191;-79
2024/01/15 03:40:15;;;;;;;12.75;2.78;;;24.50;99.90;;;;;;5081553;28;20197;-78
2024/01/15 03:42:46;;;;;;;7.97;1.95;;;24.50;99.90;;;;;;5085025;28;20196;-78
2024/01/15 03:45:17;;;;;;;11.13;2.10;;;24.50;99.90;;;;;;5048623;28;20201;-78
2024/01/15 03:47:47;;;;;;;13.88;2.65;;;24.60;99.90;;;;;;5051665;28;20216;-79
2024/01/15 03:50:18;;;;;;;14.68;2.67;;;24.70;99.90;;;;;;5063752;28;20214;-79
2024/01/15 03:52:49;;;;;;;12.48;2.05;;;24.60;99.90;;;;;;5066595;28;20196;-80
2024/01/15 03:55:24;;;;;;;10.85;2.10;;;24.80;99.90;;;;;;5075563;28;20198;-79
2024/01/15 03:57:54;;;;;;;14.73;2.70;;;24.80;99.90;;;;;;5073200;28;20202;-79
2024/01/15 04:00:25;;;;;;;10.77;2.30;;;24.90;99.90;;;;;;5065625;28;20665;-79
2024/01/15 04:02:56;;;;;;;10.35;2.08;;;25.00;99.90;;;;;;5053263;28;20650;-80
2024/01/15 04:05:27;;;;;;;15.02;3.03;;;25.10;99.90;;;;;;5056250;28;20199;-79
2024/01/15 04:07:57;;;;;;;12.35;2.60;;;25.10;99.90;;;;;;5076989;28;20752;-79
2024/01/15 04:10:30;;;;;;;10.10;2.10;;;25.00;99.90;;;;;;5070881;28;20286;-79
2024/01/15 04:13:03;;;;;;;7.43;1.90;;;25.00;99.90;;;;;;5053091;28;20572;-80
2024/01/15 04:15:34;;;;;;;8.88;2.30;;;24.90;99.90;;;;;;5058289;28;20251;-81
2024/01/15 04:18:05;;;;;;;9.20;1.92;;;24.80;99.90;;;;;;5075302;28;20210;-77
2024/01/15 04:20:35;;;;;;;8.18;1.92;;;24.70;99.90;;;;;;5073281;28;20199;-77
2024/01/15 04:23:06;;;;;;;10.02;2.38;;;24.70;99.90;;;;;;5065657;28;20219;-79
2024/01/15 04:25:41;;;;;;;11.02;2.10;;;24.60;99.90;;;;;;5068698;28;20192;-80
2024/01/15 04:28:12;;;;;;;11.80;2.15;;;24.60;99.90;;;;;;5073567;28;20266;-79
2024/01/15 04:30:42;;;;;;;11.35;2.33;;;24.50;99.90;;;;;;5073149;28;20195;-79
2024/01/15 04:33:13;;;;;;;14.68;2.30;;;24.50;99.90;;;;;;5073019;28;20271;-80
2024/01/15 04:35:44;;;;;;;7.00;1.55;;;24.60;99.90;;;;;;5072374;28;20210;-80
2024/01/15 04:38:15;;;;;;;11.55;2.00;;;24.50;99.90;;;;;;5072885;28;20192;-81
2024/01/15 04:40:47;;;;;;;7.18;2.03;;;24.50;99.90;;;;;;5067213;28;20200;-78
2024/01/15 04:43:18;;;;;;;10.15;1.77;;;24.50;99.90;;;;;;5055514;28;20462;-80
2024/01/15 04:45:49;;;;;;;9.10;1.92;;;24.60;99.90;;;;;;5068939;28;20191;-78
2024/01/15 04:48:19;;;;;;;5.28;1.83;;;24.60;99.90;;;;;;5052491;28;20236;-78
2024/01/15 04:50:50;;;;;;;10.40;2.25;;;24.60;99.90;;;;;;5058282;28;20187;-78
2024/01/15 04:53:21;;;;;;;8.93;2.10;;;24.60;99.90;;;;;;5073779;28;20194;-78
2024/01/15 04:55:53;;;;;;;8.52;2.08;;;24.60;99.90;;;;;;5084841;28;20192;-78
2024/01/15 04:58:26;;;;;;;11.55;1.80;;;24.60;99.90;;;;;;5089559;28;20195;-78
2024/01/15 05:00:57;;;;;;;10.35;2.35;;;24.50;99.90;;;;;;5072362;28;20362;-79
2024/01/15 05:03:28;;;;;;;8.55;1.92;;;24.50;99.90;;;;;;5075650;28;20200;-79
2024/01/15 05:05:59;;;;;;;10.63;2.10;;;24.40;99.90;;;;;;5075917;28;20223;-79
2024/01/15 05:08:29;;;;;;;12.50;2.17;;;24.50;99.90;;;;;;5079999;28;20232;-79
2024/01/15 05:11:02;;;;;;;11.85;2.30;;;24.40;99.90;;;;;;5081153;28;20713;-79
2024/01/15 05:13:35;;;;;;;8.55;1.90;;;24.50;99.90;;;;;;5089649;28;20700;-79
2024/01/15 05:16:07;;;;;;;10.02;2.00;;;24.40;99.90;;;;;;5066016;28;20207;-78
2024/01/15 05:18:38;;;;;;;11.23;2.40;;;24.30;99.90;;;;;;5064458;28;20667;-79
2024/01/15 05:21:08;;;;;;;10.65;1.85;;;24.30;99.90;;;;;;5071913;28;20219;-77
2024/01/15 05:23:39;;;;;;;8.18;1.90;;;24.10;99.90;;;;;;5071973;28;20227;-79
2024/01/15 05:26:12;;;;;;;10.00;2.40;;;24.10;99.90;;;;;;5071016;28;20626;-78
2024/01/15 05:28:44;;;;;;;10.40;1.95;;;24.10;99.90;;;;;;5068224;28;20224;-79
2024/01/15 05:31:15;;;;;;;8.02;2.17;;;24.00;99.90;;;;;;5051312;28;20524;-78
2024/01/15 05:33:46;;;;;;;12.25;2.85;;;24.00;99.90;;;;;;5064492;28;20638;-79
2024/01/15 05:36:17;;;;;;;11.05;2.22;;;24.00;99.90;;;;;;5087802;28;20221;-78
2024/01/15 05:38:48;;;;;;;11.35;1.77;;;23.90;99.90;;;;;;5091261;28;20206;-78
2024/01/15 05:41:20;;;;;;;8.50;2.00;;;23.90;99.90;;;;;;5058851;28;20250;-79
2024/01/15 05:43:51;;;;;;;14.50;2.92;;;23.90;99.90;;;;;;5051368;28;20201;-79
2024/01/15 05:46:22;;;;;;;9.05;2.00;;;23.90;99.90;;;;;;5050324;28;20200;-79
2024/01/15 05:48:53;;;;;;;11.23;2.28;;;23.80;99.90;;;;;;5051219;28;20244;-79
2024/01/15 05:51:23;;;;;;;9.57;2.08;;;23.80;99.90;;;;;;5052990;28;20600;-78
2024/01/15 05:53:54;;;;;;;9.80;1.83;;;23.70;99.90;;;;;;5081989;28;20209;-78
2024/01/15 05:56:26;;;;;;;10.32;2.17;;;23.60;99.90;;;;;;5091283;28;20210;-78
2024/01/15 05:58:57;;;;;;;9.52;2.20;;;23.50;99.90;;;;;;5062193;28;20649;-78
2024/01/15 06:01:28;;;;;;;9.63;2.35;;;23.40;99.90;;;;;;5086276;28;20195;-78
2024/01/15 06:03:59;;;;;;;8.90;1.90;;;23.50;99.90;;;;;;5088519;28;20199;-79
2024/01/15 06:06:29;;;;;;;10.75;2.25;;;23.50;99.90;;;;;;5059656;28;20240;-78
2024/01/15 06:09:05;;;;;;;11.40;2.20;;;23.50;99.90;;;;;;5071451;28;20227;-78
2024/01/15 06:11:37;;;;;;;7.15;1.90;;;23.50;99.90;;;;;;5071074;28;20712;-78
2024/01/15 06:14:11;;;;;;;6.60;1.67;;;23.60;99.90;;;;;;5057406;28;20203;-79
2024/01/15 06:16:42;;;;;;;8.65;2.20;;;23.60;99.90;;;;;;5066378;28;20206;-78
2024/01/15 06:19:13;;;;;;;8.95;1.98;;;23.70;99.90;;;;;;5070629;28;20214;-78
2024/01/15 06:21:44;;;;;;;15.43;2.20;;;23.70;99.90;;;;;;5070271;28;20216;-79
2024/01/15 06:24:15;;;;;;;7.88;1.98;;;23.70;99.90;;;;;;5070702;28;20199;-78
2024/01/15 06:26:49;;;;;;;9.63;2.50;;;23.70;99.90;;;;;;5064429;28;20231;-78
2024/01/15 06:29:20;;;;;;;9.30;2.25;;;23.70;99.90;;;;;;5083572;28;20230;-78
2024/01/15 06:31:51;;;;;;;8.77;1.98;;;23.70;99.90;;;;;;5073568;28;20589;-78
2024/01/15 06:34:21;;;;;;;8.27;2.10;;;23.70;99.90;;;;;;5050939;28;20522;-78
2024/01/15 06:36:52;;;;;;;9.02;2.05;;;23.70;99.90;;;;;;5056203;28;20700;-78
2024/01/15 06:39:23;;;;;;;10.60;2.42;;;23.70;99.90;;;;;;5080405;28;20202;-78
2024/01/15 06:41:56;;;;;;;14.13;1.90;;;23.70;99.90;;;;;;5076025;28;20302;-78
2024/01/15 06:44:26;;;;;;;10.15;2.00;;;23.70;99.90;;;;;;5073894;28;20650;-78
2024/01/15 06:47:02;;;;;;;8.43;1.73;;;23.60;99.90;;;;;;5070659;28;20200;-78
2024/01/15 06:49:33;;;;;;;9.57;2.08;;;23.70;99.90;;;;;;5063957;28;20227;-77
2024/01/15 06:52:06;;;;;;;7.82;1.77;;;23.70;99.90;;;;;;5063360;28;20191;-79
2024/01/15 06:54:36;;;;;;;8.43;1.83;;;23.70;99.90;;;;;;5090951;28;20592;-78
2024/01/15 06:57:09;;;;;;;11.20;2.22;;;23.80;99.90;;;;;;5087154;28;20205;-79
2024/01/15 06:59:40;;;;;;;8.93;1.83;;;23.80;99.90;;;;;;5057788;28;20199;-78
2024/01/15 07:02:12;;;;;;;9.63;1.90;;;23.90;99.90;;;;;;5065270;28;20196;-78
2024/01/15 07:04:42;;;;;;;12.45;2.28;;;23.80;99.90;;;;;;5066791;28;20209;-79
2024/01/15 07:07:13;;;;;;;8.98;1.85;;;23.80;99.90;;;;;;5069303;28;20228;-78
2024/01/15 07:09:46;;;;;;;9.88;1.80;;;23.80;99.90;;;;;;5070237;28;20231;-79
2024/01/15 07:12:19;;;;;;;6.18;1.63;;;23.90;99.90;;;;;;5070742;28;20204;-79
2024/01/15 07:14:50;;;;;;;9.73;2.10;;;23.90;99.90;;;;;;5059871;28;20555;-79
2024/01/15 07:17:20;;;;;;;7.28;1.90;;;23.80;99.90;;;;;;5059110;28;20196;-79
2024/01/15 07:19:51;;;;;;;8.93;2.03;;;23.80;99.90;;;;;;5060814;28;20202;-79
2024/01/15 07:22:22;;;;;;;7.30;1.80;;;23.80;99.90;;;;;;5068867;28;20223;-79
2024/01/15 07:24:56;;;;;;;9.50;1.90;;;23.80;99.90;;;;;;5084159;28;20195;-79
2024/01/15 07:27:28;;;;;;;7.85;2.05;;;23.80;99.90;;;;;;5090968;28;20203;-78
2024/01/15 07:29:59;;;;;;;8.25;1.85;;;23.80;99.90;;;;;;5086665;28;20232;-78
2024/01/15 07:32:31;;;;;;;7.10;1.90;;;23.80;99.90;;;;;;5073483;28;20196;-79
2024/01/15 07:35:02;;;;;;;8.95;2.10;;;23.80;99.90;;;;;;5058395;28;20659;-79
2024/01/15 07:37:33;;;;;;;6.78;1.58;;;23.80;99.90;;;;;;5068758;28;20195;-78
2024/01/15 07:40:04;;;;;;;7.65;2.05;;;23.80;99.90;;;;;;5076519;28;20195;-79
2024/01/15 07:42:37;;;;;;;7.55;2.10;;;23.80;99.90;;;;;;5061416;28;20374;-78
2024/01/15 07:45:09;;;;;;;9.25;1.90;;;23.80;99.90;;;;;;5053828;28;20663;-78
2024/01/15 07:47:40;;;;;;;7.22;1.80;;;23.80;99.90;;;;;;5061840;28;20200;-79
2024/01/15 07:50:11;;;;;;;8.98;2.33;;;23.80;99.90;;;;;;5061590;28;20242;-78
2024/01/15 07:52:42;;;;;;;8.48;2.00;;;23.90;99.90;;;;;;5065159;28;20200;-79
2024/01/15 07:55:13;;;;;;;8.88;1.98;;;23.90;99.90;;;;;;5068652;28;20203;-80
2024/01/15 07:57:46;;;;;;;5.40;1.83;;;23.90;99.90;;;;;;5065976;28;20217;-79
2024/01/15 08:00:17;;;;;;;12.63;2.25;;;23.80;99.90;;;;;;5084331;28;20199;-79
2024/01/15 08:02:48;;;;;;;9.35;2.30;;;23.90;99.90;;;;;;5083395;28;20203;-79
2024/01/15 08:05:18;;;;;;;7.63;2.00;;;23.90;99.90;;;;;;5091105;28;20206;-79
2024/01/15 08:07:49;;;;;;;9.23;2.40;;;23.90;99.90;;;;;;5077050;28;20200;-79
2024/01/15 08:10:20;;;;;;;7.25;1.80;;;23.90;99.90;;;;;;5070860;28;20224;-79
2024/01/15 08:12:53;;;;;;;10.23;2.13;;;23.90;99.90;;;;;;5089391;28;20646;-78
2024/01/15 08:15:23;;;;;;;7.50;2.05;;;23.90;99.90;;;;;;5076119;28;20568;-79
2024/01/15 08:17:54;;;;;;;9.25;2.10;;;23.80;99.90;;;;;;5069318;28;20664;-78
2024/01/15 08:20:25;;;;;;;13.98;2.42;;;23.70;99.90;;;;;;5090529;28;20203;-79
2024/01/15 08:22:56;;;;;;;9.55;2.13;;;23.70;99.90;;;;;;5093052;28;20203;-78
2024/01/15 08:25:26;;;;;;;7.20;2.05;;;23.70;99.90;;;;;;5077343;28;20202;-78
2024/01/15 08:28:00;;;;;;;7.78;2.40;;;23.70;99.90;;;;;;5066046;28;20224;-78
2024/01/15 08:30:31;;;;;;;10.02;2.20;;;23.70;99.90;;;;;;5079451;28;20224;-78
2024/01/15 08:33:02;;;;;;;10.70;1.92;;;23.70;99.90;;;;;;5053278;28;20226;-78
2024/01/15 08:35:33;;;;;;;8.63;1.90;;;23.60;99.90;;;;;;5055234;28;20615;-78
2024/01/15 08:38:06;;;;;;;7.38;2.05;;;23.60;99.90;;;;;;5066586;28;20578;-77
2024/01/15 08:40:37;;;;;;;10.68;2.10;;;23.60;99.90;;;;;;5075855;28;20242;-77
2024/01/15 08:43:09;;;;;;;10.63;2.20;;;23.50;99.90;;;;;;5087248;28;20601;-77
2024/01/15 08:45:40;;;;;;;8.95;2.05;;;23.60;99.90;;;;;;5052830;28;20208;-77
2024/01/15 08:48:11;;;;;;;6.57;1.83;;;23.50;99.90;;;;;;5053060;28;20201;-78
2024/01/15 08:50:42;;;;;;;6.93;1.70;;;23.50;99.90;;;;;;5058453;28;20207;-77
2024/01/15 08:53:13;;;;;;;12.88;2.47;;;23.50;99.90;;;;;;5052112;28;20254;-78
2024/01/15 08:55:44;;;;;;;6.80;2.00;;;23.40;99.90;;;;;;5061949;28;20565;-78
2024/01/15 08:58:19;;;;;;;4.85;1.52;;;23.40;99.90;;;;;;5052508;28;20223;-79
2024/01/15 09:00:50;;;;;;;7.28;1.52;;;23.40;99.90;;;;;;5071108;28;20282;-80
2024/01/15 09:03:24;;;;;;;6.47;1.52;;;23.40;99.90;;;;;;5090055;28;20197;-78
2024/01/15 09:05:59;;;;;;;7.18;1.40;;;23.40;99.90;;;;;;5083370;28;20576;-78
2024/01/15 09:08:32;;;;;;;4.75;1.40;;;23.40;99.90;;;;;;5052159;28;20201;-79
2024/01/15 09:11:04;;;;;;;7.55;1.67;;;23.30;99.90;;;;;;5068949;28;20263;-76
2024/01/15 09:13:36;;;;;;;7.05;1.70;;;23.30;99.90;;;;;;5079027;28;20197;-78
2024/01/15 09:16:08;;;;;;;7.60;1.70;;;23.30;99.90;;;;;;5060936;28;20278;-78
2024/01/15 09:18:38;;;;;;;6.57;1.60;;;23.40;99.90;;;;;;5072250;28;20685;-78
2024/01/15 09:21:09;;;;;;;4.13;1.42;;;23.30;99.90;;;;;;5072177;28;20227;-77
2024/01/15 09:23:41;;;;;;;8.00;1.60;;;23.30;99.90;;;;;;5063736;28;20326;-78
2024/01/15 09:26:12;;;;;;;7.75;1.63;;;23.30;99.90;;;;;;5076873;28;20195;-77
2024/01/15 09:28:45;;;;;;;5.25;1.63;;;23.30;99.90;;;;;;5067926;28;20542;-77
2024/01/15 09:31:17;;;;;;;6.10;1.42;;;23.30;99.90;;;;;;5091526;28;20286;-78
2024/01/15 09:33:47;;;;;;;9.13;1.63;;;23.30;99.90;;;;;;5090105;28;20252;-78
2024/01/15 09:36:18;;;;;;;8.75;1.80;;;23.30;99.90;;;;;;5059713;28;20192;-77
2024/01/15 09:38:49;;;;;;;10.73;2.40;;;23.40;99.90;;;;;;5073813;28;20202;-78
2024/01/15 09:41:20;;;;;;;8.90;1.95;;;23.40;99.90;;;;;;5082495;28;20199;-78
2024/01/15 09:43:53;;;;;;;7.85;1.83;;;23.40;99.90;;;;;;5061789;28;20279;-77
2024/01/15 09:46:24;;;;;;;8.82;1.73;;;23.40;99.90;;;;;;5075865;28;20278;-78
2024/01/15 09:48:55;;;;;;;12.45;2.70;;;23.50;99.90;;;;;;5090556;28;20593;-79
2024/01/15 09:51:26;;;;;;;11.65;2.28;;;23.50;99.90;;;;;;5091213;28;20179;-78
2024/01/15 09:53:59;;;;;;;9.32;2.17;;;23.40;99.90;;;;;;5072951;28;20310;-78
2024/01/15 09:56:30;;;;;;;12.85;2.30;;;23.40;99.90;;;;;;5089817;28;20202;-78
2024/01/15 09:59:04;;;;;;;11.15;2.22;;;23.40;99.90;;;;;;5050848;28;20196;-78
2024/01/15 10:01:36;;;;;;;10.63;2.25;;;23.40;99.90;;;;;;5085926;28;20601;-78
2024/01/15 10:04:07;;;;;;;12.75;2.33;;;23.30;99.90;;;;;;5082023;28;20199;-79
2024/01/15 10:06:39;;;;;;;7.10;1.98;;;23.30;99.90;;;;;;5088258;28;20646;-78
2024/01/15 10:09:11;;;;;;;9.23;2.00;;;23.20;99.90;;;;;;5091394;28;20319;-76
2024/01/15 10:11:42;;;;;;;11.63;2.85;;;23.20;99.90;;;;;;5091674;28;20206;-77
2024/01/15 10:14:17;;;;;;;9.52;2.03;;;23.20;99.90;;;;;;5083707;28;20192;-78
2024/01/15 10:16:48;;;;;;;11.60;2.30;;;23.10;99.90;;;;;;5057336;28;20195;-78
2024/01/15 10:19:19;;;;;;;7.03;2.00;;;23.20;99.90;;;;;;5070466;28;20215;-77
2024/01/15 10:21:49;;;;;;;11.48;1.92;;;23.10;99.90;;;;;;5069797;28;20220;-78
2024/01/15 10:24:21;;;;;;;10.88;2.47;;;23.10;99.90;;;;;;5083812;28;20248;-79
2024/01/15 10:26:55;;;;;;;11.60;2.45;;;23.00;99.90;;;;;;5088324;28;20311;-77
2024/01/15 10:29:29;;;;;;;7.55;1.70;;;22.90;99.90;;;;;;5086353;28;20595;-77
2024/01/15 10:32:00;;;;;;;7.10;1.83;;;22.90;99.90;;;;;;5068234;28;20302;-78
2024/01/15 10:34:30;;;;;;;7.22;1.63;;;22.80;99.90;;;;;;5061723;28;20211;-78
2024/01/15 10:37:02;;;;;;;8.23;1.80;;;22.70;99.90;;;;;;5099818;28;20201;-79
2024/01/15 10:39:33;;;;;;;9.88;1.70;;;22.70;99.90;;;;;;5088404;28;20570;-79
2024/01/15 10:42:05;;;;;;;10.93;1.83;;;22.60;99.90;;;;;;5090414;28;20217;-78
2024/01/15 10:44:37;;;;;;;8.80;1.92;;;22.50;99.90;;;;;;5086901;28;20536;-77
2024/01/15 10:47:08;;;;;;;7.03;1.75;;;22.50;99.90;;;;;;5087944;28;20204;-78
2024/01/15 10:49:39;;;;;;;9.93;2.05;;;22.40;99.90;;;;;;5084045;28;20219;-79
2024/01/15 10:52:13;;;;;;;6.65;1.75;;;22.40;99.90;;;;;;5063088;28;20196;-79
2024/01/15 10:54:44;;;;;;;9.88;1.88;;;22.40;99.90;;;;;;5050053;28;20193;-79
2024/01/15 10:57:16;;;;;;;6.88;1.63;;;22.30;99.90;;;;;;5084194;28;20287;-79
2024/01/15 10:59:49;;;;;;;7.70;1.70;;;22.20;99.90;;;;;;5087653;28;20196;-79
2024/01/15 11:02:20;;;;;;;9.75;2.22;;;22.20;99.90;;;;;;5079163;28;20621;-78
2024/01/15 11:04:51;;;;;;;8.15;1.90;;;22.10;99.90;;;;;;5082816;28;20199;-77
2024/01/15 11:07:26;;;;;;;6.55;1.63;;;22.10;99.90;;;;;;5084792;28;20226;-77
2024/01/15 11:09:58;;;;;;;8.57;2.08;;;22.00;99.90;;;;;;5058825;28;20228;-77
2024/01/15 11:12:29;;;;;;;8.65;2.05;;;21.90;99.90;;;;;;5077732;28;20286;-77
2024/01/15 11:15:09;;;;;;;9.45;1.98;;;21.90;99.90;;;;;;5082587;28;20208;-77
2024/01/15 11:18:05;;;;;;;9.10;1.67;;;21.90;99.90;;;;;;5063282;28;20566;-77
2024/01/15 11:20:36;;;;;;;7.75;1.50;;;21.90;99.90;;;;;;5053558;28;20200;-78
2024/01/15 11:23:07;;;;;;;8.18;1.70;;;21.90;99.90;;;;;;5059852;28;20659;-78
2024/01/15 11:25:40;;;;;;;7.10;1.77;;;21.90;99.90;;;;;;5070154;28;20225;-78
2024/01/15 11:28:34;;;;;;;9.18;2.00;;;21.90;99.90;;;;;;5074679;28;20199;-78
2024/01/15 11:31:07;;;;;;;6.03;1.58;;;21.80;99.90;;;;;;5059931;28;20315;-78
2024/01/15 11:33:38;;;;;;;8.23;1.98;;;21.80;99.90;;;;;;5089171;28;20207;-77
2024/01/15 11:36:12;;;;;;;6.45;1.83;;;21.80;99.90;;;;;;5080166;28;20195;-79
2024/01/15 11:38:42;;;;;;;7.15;1.70;;;21.80;99.90;;;;;;5077307;28;20191;-77
2024/01/15 11:41:18;;;;;;;8.38;2.30;;;21.80;99.90;;;;;;5065500;28;20279;-79
2024/01/15 11:43:49;;;;;;;8.07;1.85;;;21.80;99.90;;;;;;5055572;28;20198;-76
2024/01/15 11:46:22;;;;;;;9.30;1.80;;;21.70;99.90;;;;;;5066805;28;20206;-78
2024/01/15 11:49:05;;;;;;;9.27;1.73;;;21.70;99.90;;;;;;5069841;28;20206;-79
2024/01/15 11:51:39;;;;;;;11.75;2.33;;;21.70;99.90;;;;;;5059382;28;20224;-77
2024/01/15 11:54:16;;;;;;;11.73;2.40;;;21.70;99.90;;;;;;5078026;28;20195;-79
2024/01/15 11:56:47;;;;;;;10.10;1.95;;;21.70;99.90;;;;;;5050513;28;20238;-79
2024/01/15 11:59:18;;;;;;;12.77;2.15;;;21.70;99.90;;;;;;5048606;28;20201;-77
2024/01/15 12:01:51;;;;;;;12.65;2.25;;;21.70;99.90;;;;;;5049568;28;20601;-78
2024/01/15 12:04:23;;;;;;;9.68;2.22;;;21.70;99.90;;;;;;5073612;28;20191;-78
2024/01/15 12:06:54;;;;;;;13.57;2.47;;;21.80;99.90;;;;;;5065075;28;20705;-78
2024/01/15 12:09:25;;;;;;;9.93;1.90;;;21.80;99.90;;;;;;5089675;28;20199;-77
2024/01/15 12:12:05;;;;;;;11.73;2.47;;;21.80;99.90;;;;;;5082598;28;20199;-78
2024/01/15 12:14:36;;;;;;;10.98;1.80;;;21.80;99.90;;;;;;5061125;28;20197;-77
2024/01/15 12:17:10;;;;;;;9.63;2.10;;;21.80;99.90;;;;;;5073412;28;20199;-78
2024/01/15 12:19:41;;;;;;;11.00;2.28;;;21.80;99.90;;;;;;5093718;28;20205;-79
2024/01/15 12:22:12;;;;;;;11.50;2.03;;;21.80;99.90;;;;;;5090568;28;20223;-78
2024/01/15 12:24:43;;;;;;;8.55;2.20;;;21.90;99.90;;;;;;5089592;28;20207;-79
2024/01/15 12:27:14;;;;;;;10.95;2.10;;;21.90;99.90;;;;;;5090295;28;20658;-79
2024/01/15 12:29:45;;;;;;;16.67;2.30;;;21.90;99.90;;;;;;5084385;28;20220;-79
2024/01/15 12:32:18;;;;;;;10.18;1.80;;;21.90;99.90;;;;;;5061449;28;20206;-79
2024/01/15 12:34:49;;;;;;;8.15;2.00;;;21.90;99.90;;;;;;5073166;28;20260;-79
2024/01/15 12:37:22;;;;;;;14.07;2.05;;;21.90;99.90;;;;;;5072987;28;20202;-79
2024/01/15 12:39:54;;;;;;;9.45;1.80;;;22.00;99.90;;;;;;5066040;28;20203;-78
2024/01/15 12:42:25;;;;;;;10.73;2.28;;;21.90;99.90;;;;;;5063741;28;20191;-76
2024/01/15 12:44:59;;;;;;;8.18;1.63;;;21.90;99.90;;;;;;5081565;28;20188;-77
2024/01/15 12:47:32;;;;;;;11.77;2.20;;;21.90;99.90;;;;;;5071710;28;20199;-79
2024/01/15 12:50:03;;;;;;;9.48;2.08;;;22.00;99.90;;;;;;5057201;28;20635;-79
2024/01/15 12:52:35;;;;;;;12.10;1.90;;;22.00;99.90;;;;;;5072899;28;20209;-79
2024/01/15 12:55:06;;;;;;;10.20;2.50;;;22.00;99.90;;;;;;5069440;28;20201;-79
2024/01/15 12:57:37;;;;;;;5.88;1.60;;;22.00;99.90;;;;;;5086902;28;20203;-79
2024/01/15 13:00:11;;;;;;;10.85;2.17;;;22.00;99.90;;;;;;5087222;28;20192;-77
2024/01/15 13:02:44;;;;;;;9.57;1.98;;;21.90;99.90;;;;;;5070683;28;20624;-78